createdAt,value
2018-07-17T00:00:23.431Z,1000.5
2018-07-17T00:01:23.388Z,1000.53
2018-07-17T00:02:23.416Z,1000.53
2018-07-17T00:03:23.441Z,1000.54
2018-07-17T00:04:23.478Z,1000.5
2018-07-17T00:05:23.490Z,1000.5
2018-07-17T00:06:23.517Z,1000.46
2018-07-17T00:07:23.548Z,1000.46
2018-07-17T00:08:23.574Z,1000.44
2018-07-17T00:09:23.592Z,1000.44
2018-07-17T00:10:23.619Z,1000.46
2018-07-17T00:11:23.645Z,1000.44
2018-07-17T00:12:23.670Z,1000.43
2018-07-17T00:13:23.698Z,1000.47
2018-07-17T00:14:23.720Z,1000.43
2018-07-17T00:15:23.748Z,1000.41
2018-07-17T00:16:23.773Z,1000.44
2018-07-17T00:17:23.797Z,1000.41
2018-07-17T00:18:23.823Z,1000.41
2018-07-17T00:19:23.849Z,1000.4
2018-07-17T00:20:23.873Z,1000.4
2018-07-17T00:21:23.899Z,1000.38
2018-07-17T00:22:23.925Z,1000.42
2018-07-17T00:23:23.950Z,1000.37
2018-07-17T00:24:23.974Z,1000.39
2018-07-17T00:25:24.000Z,1000.38
2018-07-17T00:26:24.025Z,1000.42
2018-07-17T00:27:24.051Z,1000.37
2018-07-17T00:28:24.076Z,1000.41
2018-07-17T00:29:24.102Z,1000.4
2018-07-17T00:30:24.127Z,1000.36
2018-07-17T00:31:24.151Z,1000.36
2018-07-17T00:32:24.177Z,1000.35
2018-07-17T00:33:24.203Z,1000.37
2018-07-17T00:34:24.227Z,1000.4
2018-07-17T00:35:24.253Z,1000.38
2018-07-17T00:36:24.278Z,1000.44
2018-07-17T00:37:24.305Z,1000.45
2018-07-17T00:38:24.329Z,1000.45
2018-07-17T00:39:24.353Z,1000.43
2018-07-17T00:40:24.377Z,1000.43
2018-07-17T00:41:24.404Z,1000.49
2018-07-17T00:42:24.429Z,1000.46
2018-07-17T00:43:24.454Z,1000.48
2018-07-17T00:44:24.479Z,1000.45
2018-07-17T00:45:24.504Z,1000.49
2018-07-17T00:46:24.531Z,1000.47
2018-07-17T00:47:24.555Z,1000.48
2018-07-17T00:48:24.584Z,1000.46
2018-07-17T00:49:24.604Z,1000.51
2018-07-17T00:50:24.630Z,1000.49
2018-07-17T00:51:24.655Z,1000.49
2018-07-17T00:52:24.679Z,1000.47
2018-07-17T00:53:24.703Z,1000.51
2018-07-17T00:54:24.728Z,1000.49
2018-07-17T00:55:24.755Z,1000.48
2018-07-17T00:56:24.780Z,1000.45
2018-07-17T00:57:24.806Z,1000.48
2018-07-17T00:58:24.831Z,1000.47
2018-07-17T00:59:24.855Z,1000.46
2018-07-17T01:00:24.879Z,1000.44
2018-07-17T01:01:24.905Z,1000.44
2018-07-17T01:02:24.928Z,1000.44
2018-07-17T01:03:24.953Z,1000.46
2018-07-17T01:04:24.978Z,1000.44
2018-07-17T01:05:25.004Z,1000.42
2018-07-17T01:06:25.030Z,1000.44
2018-07-17T01:07:25.052Z,1000.47
2018-07-17T01:08:25.082Z,1000.47
2018-07-17T01:09:25.103Z,1000.43
2018-07-17T01:10:25.128Z,1000.47
2018-07-17T01:11:25.153Z,1000.46
2018-07-17T01:12:25.177Z,1000.49
2018-07-17T01:13:25.200Z,1000.52
2018-07-17T01:14:25.226Z,1000.48
2018-07-17T01:15:25.250Z,1000.47
2018-07-17T01:16:25.275Z,1000.49
2018-07-17T01:17:25.300Z,1000.5
2018-07-17T01:18:25.323Z,1000.47
2018-07-17T01:19:25.351Z,1000.48
2018-07-17T01:20:25.374Z,1000.46
2018-07-17T01:21:25.399Z,1000.44
2018-07-17T01:22:25.423Z,1000.45
2018-07-17T01:23:25.450Z,1000.45
2018-07-17T01:24:25.472Z,1000.44
2018-07-17T01:25:25.498Z,1000.44
2018-07-17T01:26:25.521Z,1000.44
2018-07-17T01:27:25.547Z,1000.44
2018-07-17T01:28:25.570Z,1000.4
2018-07-17T01:29:25.598Z,1000.43
2018-07-17T01:30:25.619Z,1000.42
2018-07-17T01:31:25.647Z,1000.42
2018-07-17T01:32:25.674Z,1000.38
2018-07-17T01:33:25.691Z,1000.38
2018-07-17T01:34:25.715Z,1000.39
2018-07-17T01:35:25.745Z,1000.34
2018-07-17T01:36:25.768Z,1000.32
2018-07-17T01:37:25.790Z,1000.34
2018-07-17T01:38:25.867Z,1000.33
2018-07-17T01:39:25.840Z,1000.32
2018-07-17T01:40:25.863Z,1000.28
2018-07-17T01:41:25.887Z,1000.3
2018-07-17T01:42:25.911Z,1000.29
2018-07-17T01:43:25.939Z,1000.31
2018-07-17T01:44:25.959Z,1000.27
2018-07-17T01:45:25.987Z,1000.29
2018-07-17T01:46:26.010Z,1000.28
2018-07-17T01:47:26.032Z,1000.3
2018-07-17T01:48:26.056Z,1000.26
2018-07-17T01:49:26.132Z,1000.26
2018-07-17T01:50:26.108Z,1000.24
2018-07-17T01:51:26.136Z,1000.26
2018-07-17T01:52:26.154Z,1000.28
2018-07-17T01:53:26.178Z,1000.28
2018-07-17T01:54:26.202Z,1000.3
2018-07-17T01:55:26.227Z,1000.27
2018-07-17T01:56:26.251Z,1000.31
2018-07-17T01:57:26.279Z,1000.3
2018-07-17T01:58:26.299Z,1000.26
2018-07-17T01:59:26.322Z,1000.31
2018-07-17T02:00:26.346Z,1000.27
2018-07-17T02:01:26.372Z,1000.28
2018-07-17T02:02:26.395Z,1000.32
2018-07-17T02:03:26.423Z,1000.27
2018-07-17T02:04:26.446Z,1000.3
2018-07-17T02:05:26.468Z,1000.26
2018-07-17T02:06:26.491Z,1000.27
2018-07-17T02:07:26.517Z,1000.29
2018-07-17T02:08:26.541Z,1000.26
2018-07-17T02:09:26.564Z,1000.29
2018-07-17T02:10:26.590Z,1000.3
2018-07-17T02:11:26.612Z,1000.32
2018-07-17T02:12:26.636Z,1000.36
2018-07-17T02:13:26.663Z,1000.37
2018-07-17T02:14:26.687Z,1000.38
2018-07-17T02:15:26.708Z,1000.36
2018-07-17T02:16:26.733Z,1000.3
2018-07-17T02:17:26.758Z,1000.34
2018-07-17T02:18:26.798Z,1000.36
2018-07-17T02:19:26.819Z,1000.34
2018-07-17T02:20:26.828Z,1000.32
2018-07-17T02:21:26.854Z,1000.38
2018-07-17T02:22:26.876Z,1000.32
2018-07-17T02:23:26.901Z,1000.35
2018-07-17T02:24:26.924Z,1000.36
2018-07-17T02:25:26.951Z,1000.34
2018-07-17T02:26:26.973Z,1000.32
2018-07-17T02:27:26.995Z,1000.31
2018-07-17T02:28:27.020Z,1000.33
2018-07-17T02:29:27.042Z,1000.32
2018-07-17T02:30:27.068Z,1000.31
2018-07-17T02:31:27.091Z,1000.26
2018-07-17T02:32:27.115Z,1000.27
2018-07-17T02:33:27.157Z,1000.26
2018-07-17T02:34:27.163Z,1000.26
2018-07-17T02:35:27.190Z,1000.26
2018-07-17T02:36:27.210Z,1000.28
2018-07-17T02:37:27.242Z,1000.24
2018-07-17T02:38:27.258Z,1000.26
2018-07-17T02:39:27.280Z,1000.26
2018-07-17T02:40:27.314Z,1000.27
2018-07-17T02:41:27.330Z,1000.26
2018-07-17T02:42:27.432Z,1000.29
2018-07-17T02:43:27.376Z,1000.31
2018-07-17T02:44:27.402Z,1000.3
2018-07-17T02:45:27.424Z,1000.33
2018-07-17T02:46:27.449Z,1000.32
2018-07-17T02:47:27.471Z,1000.31
2018-07-17T02:48:27.494Z,1000.33
2018-07-17T02:49:27.517Z,1000.31
2018-07-17T02:50:27.544Z,1000.28
2018-07-17T02:51:27.566Z,1000.3
2018-07-17T02:52:27.591Z,1000.29
2018-07-17T02:53:27.612Z,1000.3
2018-07-17T02:54:27.640Z,1000.34
2018-07-17T02:55:27.662Z,1000.35
2018-07-17T02:56:27.684Z,1000.35
2018-07-17T02:57:27.708Z,1000.37
2018-07-17T02:58:27.734Z,1000.35
2018-07-17T02:59:27.753Z,1000.36
2018-07-17T03:00:27.776Z,1000.39
2018-07-17T03:01:27.800Z,1000.34
2018-07-17T03:02:27.825Z,1000.37
2018-07-17T03:03:27.849Z,1000.37
2018-07-17T03:04:27.878Z,1000.35
2018-07-17T03:05:27.895Z,1000.45
2018-07-17T03:06:27.922Z,1000.4
2018-07-17T03:07:27.942Z,1000.4
2018-07-17T03:08:27.964Z,1000.38
2018-07-17T03:09:27.989Z,1000.4
2018-07-17T03:10:28.011Z,1000.41
2018-07-17T03:11:28.034Z,1000.4
2018-07-17T03:12:28.058Z,1000.41
2018-07-17T03:13:28.081Z,1000.46
2018-07-17T03:14:28.105Z,1000.43
2018-07-17T03:15:28.480Z,1000.46
2018-07-17T03:16:28.152Z,1000.46
2018-07-17T03:17:28.178Z,1000.51
2018-07-17T03:18:28.200Z,1000.48
2018-07-17T03:19:28.221Z,1000.48
2018-07-17T03:20:28.246Z,1000.51
2018-07-17T03:21:28.271Z,1000.5
2018-07-17T03:22:28.291Z,1000.48
2018-07-17T03:23:28.317Z,1000.47
2018-07-17T03:24:28.407Z,1000.45
2018-07-17T03:25:28.364Z,1000.45
2018-07-17T03:26:28.385Z,1000.44
2018-07-17T03:27:28.412Z,1000.42
2018-07-17T03:28:28.433Z,1000.45
2018-07-17T03:29:28.457Z,1000.44
2018-07-17T03:30:28.480Z,1000.45
2018-07-17T03:31:28.502Z,1000.46
2018-07-17T03:32:28.525Z,1000.47
2018-07-17T03:33:28.549Z,1000.45
2018-07-17T03:34:28.572Z,1000.44
2018-07-17T03:35:28.595Z,1000.51
2018-07-17T03:36:28.631Z,1000.48
2018-07-17T03:37:28.641Z,1000.48
2018-07-17T03:38:28.664Z,1000.49
2018-07-17T03:39:28.689Z,1000.47
2018-07-17T03:40:28.712Z,1000.5
2018-07-17T03:41:28.734Z,1000.47
2018-07-17T03:42:28.758Z,1000.44
2018-07-17T03:43:28.784Z,1000.49
2018-07-17T03:44:28.802Z,1000.45
2018-07-17T03:45:28.827Z,1000.46
2018-07-17T03:46:28.850Z,1000.45
2018-07-17T03:47:28.873Z,1000.46
2018-07-17T03:48:28.897Z,1000.48
2018-07-17T03:49:28.920Z,1000.44
2018-07-17T03:50:28.942Z,1000.46
2018-07-17T03:51:28.966Z,1000.47
2018-07-17T03:52:28.992Z,1000.48
2018-07-17T03:53:29.011Z,1000.48
2018-07-17T03:54:29.038Z,1000.49
2018-07-17T03:55:29.058Z,1000.54
2018-07-17T03:56:29.086Z,1000.53
2018-07-17T03:57:29.104Z,1000.57
2018-07-17T03:58:29.130Z,1000.58
2018-07-17T03:59:29.176Z,1000.54
2018-07-17T04:00:29.178Z,1000.54
2018-07-17T04:01:29.199Z,1000.53
2018-07-17T04:02:29.227Z,1000.54
2018-07-17T04:03:29.244Z,1000.53
2018-07-17T04:04:29.266Z,1000.53
2018-07-17T04:05:29.290Z,1000.55
2018-07-17T04:06:29.312Z,1000.63
2018-07-17T04:07:29.334Z,1000.6
2018-07-17T04:08:29.358Z,1000.62
2018-07-17T04:09:29.385Z,1000.59
2018-07-17T04:10:29.404Z,1000.64
2018-07-17T04:11:29.426Z,1000.65
2018-07-17T04:12:29.450Z,1000.69
2018-07-17T04:13:29.552Z,1000.61
2018-07-17T04:14:29.497Z,1000.62
2018-07-17T04:15:29.520Z,1000.63
2018-07-17T04:16:29.543Z,1000.65
2018-07-17T04:17:29.566Z,1000.64
2018-07-17T04:18:29.586Z,1000.68
2018-07-17T04:19:29.609Z,1000.66
2018-07-17T04:20:29.633Z,1000.64
2018-07-17T04:21:29.657Z,1000.61
2018-07-17T04:22:29.680Z,1000.64
2018-07-17T04:23:29.703Z,1000.64
2018-07-17T04:24:29.728Z,1000.66
2018-07-17T04:25:29.748Z,1000.63
2018-07-17T04:26:29.771Z,1000.63
2018-07-17T04:27:29.792Z,1000.61
2018-07-17T04:28:29.824Z,1000.58
2018-07-17T04:29:29.837Z,1000.6
2018-07-17T04:30:29.867Z,1000.59
2018-07-17T04:31:29.894Z,1000.58
2018-07-17T04:32:29.906Z,1000.59
2018-07-17T04:33:29.930Z,1000.6
2018-07-17T04:34:29.953Z,1000.62
2018-07-17T04:35:29.976Z,1000.59
2018-07-17T04:36:30.308Z,1000.57
2018-07-17T04:37:30.021Z,1000.59
2018-07-17T04:38:30.117Z,1000.6
2018-07-17T04:39:30.067Z,1000.59
2018-07-17T04:40:30.103Z,1000.61
2018-07-17T04:41:30.113Z,1000.59
2018-07-17T04:42:30.137Z,1000.61
2018-07-17T04:43:30.158Z,1000.64
2018-07-17T04:44:30.181Z,1000.65
2018-07-17T04:45:30.207Z,1000.64
2018-07-17T04:46:30.228Z,1000.66
2018-07-17T04:47:30.253Z,1000.65
2018-07-17T04:48:30.273Z,1000.66
2018-07-17T04:49:30.296Z,1000.63
2018-07-17T04:50:30.318Z,1000.63
2018-07-17T04:51:30.340Z,1000.65
2018-07-17T04:52:30.364Z,1000.68
2018-07-17T04:53:30.387Z,1000.65
2018-07-17T04:54:30.409Z,1000.66
2018-07-17T04:55:30.433Z,1000.67
2018-07-17T04:56:30.454Z,1000.71
2018-07-17T04:57:30.480Z,1000.68
2018-07-17T04:58:30.499Z,1000.7
2018-07-17T04:59:30.522Z,1000.7
2018-07-17T05:00:30.552Z,1000.73
2018-07-17T05:01:30.619Z,1000.71
2018-07-17T05:02:30.589Z,1000.71
2018-07-17T05:03:30.613Z,1000.75
2018-07-17T05:04:30.636Z,1000.71
2018-07-17T05:05:30.659Z,1000.71
2018-07-17T05:06:30.680Z,1000.73
2018-07-17T05:07:30.704Z,1000.71
2018-07-17T05:08:30.726Z,1000.75
2018-07-17T05:09:30.751Z,1000.71
2018-07-17T05:10:30.772Z,1000.74
2018-07-17T05:11:30.797Z,1000.74
2018-07-17T05:12:30.816Z,1000.72
2018-07-17T05:13:30.841Z,1000.71
2018-07-17T05:14:30.862Z,1000.73
2018-07-17T05:15:30.885Z,1000.73
2018-07-17T05:16:31.028Z,1000.77
2018-07-17T05:17:30.931Z,1000.74
2018-07-17T05:18:30.953Z,1000.78
2018-07-17T05:19:30.975Z,1000.78
2018-07-17T05:20:30.997Z,1000.81
2018-07-17T05:21:31.019Z,1000.8
2018-07-17T05:22:31.043Z,1000.81
2018-07-17T05:23:31.066Z,1000.83
2018-07-17T05:24:31.094Z,1000.86
2018-07-17T05:25:31.111Z,1000.85
2018-07-17T05:26:31.132Z,1000.85
2018-07-17T05:27:31.156Z,1000.84
2018-07-17T05:28:31.179Z,1000.88
2018-07-17T05:29:31.201Z,1000.88
2018-07-17T05:30:31.223Z,1000.88
2018-07-17T05:31:31.248Z,1000.91
2018-07-17T05:32:31.272Z,1000.9
2018-07-17T05:33:31.294Z,1000.9
2018-07-17T05:34:31.330Z,1000.9
2018-07-17T05:35:31.456Z,1000.91
2018-07-17T05:36:31.360Z,1000.9
2018-07-17T05:37:31.385Z,1000.9
2018-07-17T05:38:31.405Z,1000.91
2018-07-17T05:39:31.429Z,1000.89
2018-07-17T05:40:31.452Z,1000.92
2018-07-17T05:41:31.473Z,1000.85
2018-07-17T05:42:31.496Z,1000.89
2018-07-17T05:43:31.518Z,1000.9
2018-07-17T05:44:31.540Z,1000.92
2018-07-17T05:45:31.566Z,1000.94
2018-07-17T05:46:31.675Z,1000.94
2018-07-17T05:47:31.610Z,1000.92
2018-07-17T05:48:31.631Z,1000.94
2018-07-17T05:49:31.655Z,1000.95
2018-07-17T05:50:31.676Z,1000.95
2018-07-17T05:51:31.700Z,1000.97
2018-07-17T05:52:31.722Z,1000.92
2018-07-17T05:53:31.744Z,1000.93
2018-07-17T05:54:31.768Z,1000.93
2018-07-17T05:55:31.792Z,1000.95
2018-07-17T05:56:31.811Z,1000.97
2018-07-17T05:57:31.844Z,1000.97
2018-07-17T05:58:31.858Z,1001.01
2018-07-17T05:59:31.881Z,1001
2018-07-17T06:00:31.903Z,1001
2018-07-17T06:01:31.926Z,1001
2018-07-17T06:02:31.950Z,1001
2018-07-17T06:03:31.972Z,1001
2018-07-17T06:04:31.995Z,1001.03
2018-07-17T06:05:32.018Z,1001.06
2018-07-17T06:06:32.040Z,1001.04
2018-07-17T06:07:32.061Z,1001.05
2018-07-17T06:08:32.091Z,1001.11
2018-07-17T06:09:32.107Z,1001.08
2018-07-17T06:10:32.131Z,1001.08
2018-07-17T06:11:32.158Z,1001.08
2018-07-17T06:12:32.176Z,1001.1
2018-07-17T06:13:32.199Z,1001.08
2018-07-17T06:14:32.221Z,1001.11
2018-07-17T06:15:32.245Z,1001.08
2018-07-17T06:16:32.268Z,1001.1
2018-07-17T06:17:32.290Z,1001.07
2018-07-17T06:18:32.312Z,1001.12
2018-07-17T06:19:32.337Z,1001.1
2018-07-17T06:20:32.363Z,1001.12
2018-07-17T06:21:32.385Z,1001.1
2018-07-17T06:22:32.403Z,1001.09
2018-07-17T06:23:32.426Z,1001.11
2018-07-17T06:24:32.455Z,1001.15
2018-07-17T06:25:32.476Z,1001.12
2018-07-17T06:26:32.499Z,1001.13
2018-07-17T06:27:32.568Z,1001.14
2018-07-17T06:28:32.541Z,1001.12
2018-07-17T06:29:32.563Z,1001.12
2018-07-17T06:30:32.652Z,1001.11
2018-07-17T06:31:32.609Z,1001.09
2018-07-17T06:32:32.639Z,1001.12
2018-07-17T06:33:32.653Z,1001.12
2018-07-17T06:34:32.676Z,1001.13
2018-07-17T06:35:32.703Z,1001.13
2018-07-17T06:36:32.722Z,1001.14
2018-07-17T06:37:32.752Z,1001.11
2018-07-17T06:38:32.768Z,1001.13
2018-07-17T06:39:32.794Z,1001.1
2018-07-17T06:40:32.817Z,1001.09
2018-07-17T06:41:32.836Z,1001.08
2018-07-17T06:42:32.883Z,1001.06
2018-07-17T06:43:32.883Z,1001.04
2018-07-17T06:44:32.952Z,1001.03
2018-07-17T06:45:32.964Z,1000.99
2018-07-17T06:46:32.951Z,1001.01
2018-07-17T06:47:32.972Z,1001.01
2018-07-17T06:48:32.997Z,1001
2018-07-17T06:49:33.019Z,1000.99
2018-07-17T06:50:33.176Z,1001.01
2018-07-17T06:51:33.063Z,1001.02
2018-07-17T06:52:33.087Z,1001.03
2018-07-17T06:53:33.113Z,1001.03
2018-07-17T06:54:33.133Z,1001.08
2018-07-17T06:55:33.155Z,1001.03
2018-07-17T06:56:33.180Z,1001.01
2018-07-17T06:57:33.203Z,1000.98
2018-07-17T06:58:33.226Z,1000.98
2018-07-17T06:59:33.247Z,1000.97
2018-07-17T07:00:33.270Z,1000.97
2018-07-17T07:01:33.293Z,1000.9
2018-07-17T07:02:33.323Z,1000.93
2018-07-17T07:03:33.341Z,1000.93
2018-07-17T07:04:33.362Z,1000.93
2018-07-17T07:05:33.389Z,1000.88
2018-07-17T07:06:33.409Z,1000.94
2018-07-17T07:07:33.432Z,1000.92
2018-07-17T07:08:33.461Z,1000.91
2018-07-17T07:09:33.476Z,1000.92
2018-07-17T07:10:33.499Z,1000.9
2018-07-17T07:11:33.524Z,1000.87
2018-07-17T07:12:33.546Z,1000.87
2018-07-17T07:13:33.568Z,1000.86
2018-07-17T07:14:33.592Z,1000.86
2018-07-17T07:15:33.615Z,1000.84
2018-07-17T07:16:33.637Z,1000.87
2018-07-17T07:17:33.660Z,1000.87
2018-07-17T07:18:33.683Z,1000.83
2018-07-17T07:19:33.723Z,1000.9
2018-07-17T07:20:33.729Z,1000.87
2018-07-17T07:21:33.756Z,1000.88
2018-07-17T07:22:33.775Z,1000.89
2018-07-17T07:23:33.799Z,1000.88
2018-07-17T07:24:33.825Z,1000.88
2018-07-17T07:25:33.845Z,1000.88
2018-07-17T07:26:33.874Z,1000.87
2018-07-17T07:27:33.891Z,1000.87
2018-07-17T07:28:33.915Z,1000.84
2018-07-17T07:29:33.939Z,1000.86
2018-07-17T07:30:33.963Z,1000.87
2018-07-17T07:31:33.986Z,1000.9
2018-07-17T07:32:34.010Z,1000.86
2018-07-17T07:33:34.032Z,1000.87
2018-07-17T07:34:34.055Z,1000.86
2018-07-17T07:35:34.078Z,1000.87
2018-07-17T07:36:34.101Z,1000.83
2018-07-17T07:37:34.124Z,1000.85
2018-07-17T07:38:34.148Z,1000.9
2018-07-17T07:39:34.174Z,1000.86
2018-07-17T07:40:34.195Z,1000.82
2018-07-17T07:41:34.219Z,1000.85
2018-07-17T07:42:34.240Z,1000.84
2018-07-17T07:43:34.264Z,1000.83
2018-07-17T07:44:34.291Z,1000.79
2018-07-17T07:45:34.314Z,1000.83
2018-07-17T07:46:34.342Z,1000.81
2018-07-17T07:47:34.359Z,1000.79
2018-07-17T07:48:34.381Z,1000.82
2018-07-17T07:49:34.406Z,1000.83
2018-07-17T07:50:34.429Z,1000.84
2018-07-17T07:51:34.452Z,1000.82
2018-07-17T07:52:34.493Z,1000.79
2018-07-17T07:53:34.499Z,1000.8
2018-07-17T07:54:34.523Z,1000.84
2018-07-17T07:55:34.562Z,1000.84
2018-07-17T07:56:34.572Z,1000.81
2018-07-17T07:57:34.602Z,1000.82
2018-07-17T07:58:34.619Z,1000.79
2018-07-17T07:59:34.643Z,1000.82
2018-07-17T08:00:34.666Z,1000.84
2018-07-17T08:01:34.689Z,1000.77
2018-07-17T08:02:34.714Z,1000.76
2018-07-17T08:03:34.744Z,1000.79
2018-07-17T08:04:34.760Z,1000.8
2018-07-17T08:05:34.786Z,1000.76
2018-07-17T08:06:34.810Z,1000.78
2018-07-17T08:07:34.831Z,1000.83
2018-07-17T08:08:34.856Z,1000.75
2018-07-17T08:09:34.881Z,1000.8
2018-07-17T08:10:34.905Z,1000.74
2018-07-17T08:11:34.988Z,1000.78
2018-07-17T08:12:34.952Z,1000.79
2018-07-17T08:13:34.977Z,1000.75
2018-07-17T08:14:35.006Z,1000.73
2018-07-17T08:15:35.027Z,1000.71
2018-07-17T08:16:35.050Z,1000.69
2018-07-17T08:17:35.074Z,1000.65
2018-07-17T08:18:35.099Z,1000.67
2018-07-17T08:19:35.121Z,1000.72
2018-07-17T08:20:35.148Z,1000.69
2018-07-17T08:21:35.175Z,1000.67
2018-07-17T08:22:35.196Z,1000.7
2018-07-17T08:23:35.222Z,1000.72
2018-07-17T08:24:35.244Z,1000.72
2018-07-17T08:25:35.269Z,1000.73
2018-07-17T08:26:35.292Z,1000.69
2018-07-17T08:27:35.319Z,1000.68
2018-07-17T08:28:35.344Z,1000.72
2018-07-17T08:29:35.420Z,1000.75
2018-07-17T08:30:35.391Z,1000.73
2018-07-17T08:31:35.415Z,1000.71
2018-07-17T08:32:35.442Z,1000.71
2018-07-17T08:33:35.464Z,1000.71
2018-07-17T08:34:35.491Z,1000.74
2018-07-17T08:35:35.517Z,1000.71
2018-07-17T08:36:35.541Z,1000.76
2018-07-17T08:37:35.570Z,1000.73
2018-07-17T08:38:35.591Z,1000.74
2018-07-17T08:39:35.617Z,1000.75
2018-07-17T08:40:35.641Z,1000.73
2018-07-17T08:41:35.665Z,1000.71
2018-07-17T08:42:35.693Z,1000.72
2018-07-17T08:43:35.771Z,1000.72
2018-07-17T08:44:35.741Z,1000.71
2018-07-17T08:45:35.767Z,1000.69
2018-07-17T08:46:35.792Z,1000.67
2018-07-17T08:47:35.818Z,1000.69
2018-07-17T08:48:35.843Z,1000.7
2018-07-17T08:49:35.874Z,1000.69
2018-07-17T08:50:35.897Z,1000.64
2018-07-17T08:51:35.918Z,1000.68
2018-07-17T08:52:35.947Z,1000.69
2018-07-17T08:53:35.970Z,1000.68
2018-07-17T08:54:36.042Z,1000.69
2018-07-17T08:55:36.020Z,1000.72
2018-07-17T08:56:36.047Z,1000.68
2018-07-17T08:57:36.078Z,1000.72
2018-07-17T08:58:36.098Z,1000.72
2018-07-17T08:59:36.126Z,1000.72
2018-07-17T09:00:36.150Z,1000.74
2018-07-17T09:01:36.176Z,1000.69
2018-07-17T09:02:36.200Z,1000.7
2018-07-17T09:03:36.228Z,1000.69
2018-07-17T09:04:36.254Z,1000.72
2018-07-17T09:05:36.280Z,1000.7
2018-07-17T09:06:36.309Z,1000.74
2018-07-17T09:07:36.332Z,1000.71
2018-07-17T09:08:36.357Z,1000.73
2018-07-17T09:09:36.384Z,1000.77
2018-07-17T09:10:36.413Z,1000.82
2018-07-17T09:11:36.436Z,1000.8
2018-07-17T09:12:36.462Z,1000.78
2018-07-17T09:13:36.488Z,1000.8
2018-07-17T09:14:36.515Z,1000.73
2018-07-17T09:15:36.543Z,1000.72
2018-07-17T09:16:36.574Z,1000.77
2018-07-17T09:17:36.594Z,1000.79
2018-07-17T09:18:36.622Z,1000.73
2018-07-17T09:19:36.653Z,1000.76
2018-07-17T09:20:36.674Z,1000.76
2018-07-17T09:21:36.808Z,1000.82
2018-07-17T09:22:36.733Z,1000.84
2018-07-17T09:23:36.762Z,1000.82
2018-07-17T09:24:36.782Z,1000.84
2018-07-17T09:25:36.810Z,1000.81
2018-07-17T09:26:36.836Z,1000.84
2018-07-17T09:27:36.868Z,1000.8
2018-07-17T09:28:36.888Z,1000.8
2018-07-17T09:29:36.916Z,1000.81
2018-07-17T09:30:36.942Z,1000.76
2018-07-17T09:31:36.971Z,1000.82
2018-07-17T09:32:37.027Z,1000.81
2018-07-17T09:33:37.090Z,1000.81
2018-07-17T09:34:37.053Z,1000.84
2018-07-17T09:35:37.080Z,1000.79
2018-07-17T09:36:37.107Z,1000.74
2018-07-17T09:37:37.135Z,1000.74
2018-07-17T09:38:37.168Z,1000.76
2018-07-17T09:39:37.189Z,1000.78
2018-07-17T09:40:37.218Z,1000.77
2018-07-17T09:41:37.250Z,1000.67
2018-07-17T09:42:37.270Z,1000.72
2018-07-17T09:43:37.301Z,1000.74
2018-07-17T09:44:37.338Z,1000.71
2018-07-17T09:45:37.356Z,1000.69
2018-07-17T09:46:37.382Z,1000.72
2018-07-17T09:47:37.410Z,1000.73
2018-07-17T09:48:37.438Z,1000.74
2018-07-17T09:49:37.476Z,1000.73
2018-07-17T09:50:37.494Z,1000.73
2018-07-17T09:51:37.522Z,1000.75
2018-07-17T09:52:37.553Z,1000.73
2018-07-17T09:53:37.580Z,1000.73
2018-07-17T09:54:37.607Z,1000.71
2018-07-17T09:55:37.635Z,1000.74
2018-07-17T09:56:37.664Z,1000.7
2018-07-17T09:57:37.690Z,1000.74
2018-07-17T09:58:37.719Z,1000.65
2018-07-17T09:59:37.748Z,1000.68
2018-07-17T10:00:37.779Z,1000.67
2018-07-17T10:01:37.804Z,1000.72
2018-07-17T10:02:37.843Z,1000.67
2018-07-17T10:03:37.865Z,1000.73
2018-07-17T10:04:37.949Z,1000.73
2018-07-17T10:05:37.919Z,1000.74
2018-07-17T10:06:37.948Z,1000.77
2018-07-17T10:07:37.977Z,1000.7
2018-07-17T10:08:38.005Z,1000.71
2018-07-17T10:09:38.116Z,1000.7
2018-07-17T10:10:38.064Z,1000.7
2018-07-17T10:11:38.094Z,1000.69
2018-07-17T10:12:38.123Z,1000.63
2018-07-17T10:13:38.151Z,1000.72
2018-07-17T10:14:38.285Z,1000.7
2018-07-17T10:15:38.211Z,1000.61
2018-07-17T10:16:38.240Z,1000.59
2018-07-17T10:17:38.270Z,1000.62
2018-07-17T10:18:38.299Z,1000.66
2018-07-17T10:19:38.329Z,1000.67
2018-07-17T10:20:38.357Z,1000.63
2018-07-17T10:21:38.388Z,1000.6
2018-07-17T10:22:38.416Z,1000.6
2018-07-17T10:23:38.446Z,1000.56
2018-07-17T10:24:38.476Z,1000.62
2018-07-17T10:25:38.506Z,1000.68
2018-07-17T10:26:38.571Z,1000.72
2018-07-17T10:27:38.567Z,1000.7
2018-07-17T10:28:38.595Z,1000.71
2018-07-17T10:29:38.626Z,1000.63
2018-07-17T10:30:38.657Z,1000.56
2018-07-17T10:31:38.686Z,1000.51
2018-07-17T10:32:38.715Z,1000.59
2018-07-17T10:33:38.744Z,1000.5
2018-07-17T10:34:38.775Z,1000.59
2018-07-17T10:35:38.815Z,1000.69
2018-07-17T10:36:38.839Z,1000.69
2018-07-17T10:37:38.865Z,1000.69
2018-07-17T10:38:38.964Z,1000.69
2018-07-17T10:39:38.925Z,1000.62
2018-07-17T10:40:38.957Z,1000.66
2018-07-17T10:41:38.986Z,1000.66
2018-07-17T10:42:39.203Z,1000.63
2018-07-17T10:43:39.050Z,1000.56
2018-07-17T10:44:39.079Z,1000.58
2018-07-17T10:45:39.109Z,1000.57
2018-07-17T10:46:39.139Z,1000.58
2018-07-17T10:47:39.294Z,1000.5
2018-07-17T10:48:39.202Z,1000.53
2018-07-17T10:49:39.237Z,1000.57
2018-07-17T10:50:39.264Z,1000.61
2018-07-17T10:51:39.295Z,1000.58
2018-07-17T10:52:39.326Z,1000.53
2018-07-17T10:53:39.356Z,1000.56
2018-07-17T10:54:39.387Z,1000.55
2018-07-17T10:55:39.419Z,1000.56
2018-07-17T10:56:39.456Z,1000.51
2018-07-17T10:57:39.481Z,1000.52
2018-07-17T10:58:39.513Z,1000.54
2018-07-17T10:59:39.543Z,1000.55
2018-07-17T11:00:39.574Z,1000.53
2018-07-17T11:01:39.606Z,1000.48
2018-07-17T11:02:39.638Z,1000.5
2018-07-17T11:03:39.668Z,1000.46
2018-07-17T11:04:39.704Z,1000.5
2018-07-17T11:05:39.733Z,1000.47
2018-07-17T11:06:39.762Z,1000.46
2018-07-17T11:07:39.794Z,1000.43
2018-07-17T11:08:39.827Z,1000.37
2018-07-17T11:09:39.861Z,1000.34
2018-07-17T11:10:39.890Z,1000.36
2018-07-17T11:11:39.922Z,1000.4
2018-07-17T11:12:39.954Z,1000.37
2018-07-17T11:13:39.988Z,1000.4
2018-07-17T11:14:40.017Z,1000.35
2018-07-17T11:15:40.049Z,1000.31
2018-07-17T11:16:40.081Z,1000.37
2018-07-17T11:17:40.117Z,1000.38
2018-07-17T11:18:40.145Z,1000.32
2018-07-17T11:19:40.179Z,1000.35
2018-07-17T11:20:40.211Z,1000.36
2018-07-17T11:21:40.241Z,1000.31
2018-07-17T11:22:40.276Z,1000.34
2018-07-17T11:23:40.306Z,1000.3
2018-07-17T11:24:40.341Z,1000.33
2018-07-17T11:25:40.372Z,1000.29
2018-07-17T11:26:40.406Z,1000.26
2018-07-17T11:27:40.437Z,1000.28
2018-07-17T11:28:40.469Z,1000.28
2018-07-17T11:29:40.506Z,1000.27
2018-07-17T11:30:40.534Z,1000.3
2018-07-17T11:31:40.568Z,1000.24
2018-07-17T11:32:40.600Z,1000.23
2018-07-17T11:33:40.633Z,1000.21
2018-07-17T11:34:40.667Z,1000.2
2018-07-17T11:35:40.700Z,1000.26
2018-07-17T11:36:40.732Z,1000.31
2018-07-17T11:37:40.764Z,1000.16
2018-07-17T11:38:40.809Z,1000.16
2018-07-17T11:39:40.831Z,1000.19
2018-07-17T11:40:40.870Z,1000.14
2018-07-17T11:41:40.897Z,1000.15
2018-07-17T11:42:40.936Z,1000.14
2018-07-17T11:43:40.968Z,1000.12
2018-07-17T11:44:40.996Z,1000.11
2018-07-17T11:45:41.031Z,1000.11
2018-07-17T11:46:41.064Z,1000.16
2018-07-17T11:47:41.157Z,1000.06
2018-07-17T11:48:41.131Z,1000.06
2018-07-17T11:49:41.164Z,1000.18
2018-07-17T11:50:41.198Z,1000.15
2018-07-17T11:51:41.245Z,1000.19
2018-07-17T11:52:41.264Z,1000.17
2018-07-17T11:53:41.298Z,1000.09
2018-07-17T11:54:41.331Z,1000.16
2018-07-17T11:55:41.364Z,1000.16
2018-07-17T11:56:41.399Z,1000.11
2018-07-17T11:57:41.435Z,1000.14
2018-07-17T11:58:41.466Z,1000.12
2018-07-17T11:59:41.499Z,1000.1
2018-07-17T12:00:41.535Z,1000.07
2018-07-17T12:01:41.569Z,1000.08
2018-07-17T12:02:41.602Z,1000.1
2018-07-17T12:03:41.639Z,1000.01
2018-07-17T12:04:41.671Z,1000.01
2018-07-17T12:05:41.708Z,999.93
2018-07-17T12:06:41.742Z,999.89
2018-07-17T12:07:41.772Z,999.98
2018-07-17T12:08:41.806Z,1000.02